Terminal Aerodrome Forecast
Issued by NWS Cleveland, OH

Home | Current Version | Previous Version | Text Only | Print | Product List | Glossary On
Versions: 1 2 3 4 5 6 7 8 9 10 11 12 13 14 15 16 17 18 19 20 21 22
000
FTUS41 KCLE 291700
TAFYNG
TAF
KYNG 291722Z 2918/3018 30007KT P6SM SCT030 BKN060
     FM300300 22005KT P6SM VCSH BKN045 BKN080
     FM300600 22004KT 6SM BR SCT035
     FM301700 27007KT P6SM VCSH BKN035 OVC100=

USA.gov is the U.S. government's official web portal to all federal, state and local government web resources and services.